sensor_id;sensor_type;location;lat;lon;timestamp;temperature;humidity
59309;DHT22;48433;53.016;-2.260;2023-12-20T00:01:09;8.60;99.90
59309;DHT22;48433;53.016;-2.260;2023-12-20T00:03:36;8.60;99.90
59309;DHT22;48433;53.016;-2.260;2023-12-20T00:06:09;8.70;99.90
59309;DHT22;48433;53.016;-2.260;2023-12-20T00:08:37;8.80;99.90
59309;DHT22;48433;53.016;-2.260;2023-12-20T00:11:04;8.80;99.90
59309;DHT22;48433;53.016;-2.260;2023-12-20T00:13:32;8.80;99.90
59309;DHT22;48433;53.016;-2.260;2023-12-20T00:15:59;8.80;99.90
59309;DHT22;48433;53.016;-2.260;2023-12-20T00:18:26;8.80;99.90
59309;DHT22;48433;53.016;-2.260;2023-12-20T00:20:54;8.80;99.90
59309;DHT22;48433;53.016;-2.260;2023-12-20T00:23:21;8.80;99.90
59309;DHT22;48433;53.016;-2.260;2023-12-20T00:25:50;8.80;99.90
59309;DHT22;48433;53.016;-2.260;2023-12-20T00:28:17;8.70;99.90
59309;DHT22;48433;53.016;-2.260;2023-12-20T00:30:45;8.70;99.90
59309;DHT22;48433;53.016;-2.260;2023-12-20T00:33:13;8.70;99.90
59309;DHT22;48433;53.016;-2.260;2023-12-20T00:35:40;8.70;99.90
59309;DHT22;48433;53.016;-2.260;2023-12-20T00:38:08;8.80;99.90
59309;DHT22;48433;53.016;-2.260;2023-12-20T00:40:36;8.80;99.90
59309;DHT22;48433;53.016;-2.260;2023-12-20T00:43:03;8.80;99.90
59309;DHT22;48433;53.016;-2.260;2023-12-20T00:45:31;8.90;99.90
59309;DHT22;48433;53.016;-2.260;2023-12-20T00:47:58;9.00;99.90
59309;DHT22;48433;53.016;-2.260;2023-12-20T00:50:26;9.00;99.90
59309;DHT22;48433;53.016;-2.260;2023-12-20T00:52:56;9.00;99.90
59309;DHT22;48433;53.016;-2.260;2023-12-20T00:55:24;9.10;99.90
59309;DHT22;48433;53.016;-2.260;2023-12-20T00:57:51;9.10;99.90
59309;DHT22;48433;53.016;-2.260;2023-12-20T01:00:20;9.10;99.90
59309;DHT22;48433;53.016;-2.260;2023-12-20T01:02:48;9.10;99.90
59309;DHT22;48433;53.016;-2.260;2023-12-20T01:05:20;9.20;99.90
59309;DHT22;48433;53.016;-2.260;2023-12-20T01:07:50;9.20;99.90
59309;DHT22;48433;53.016;-2.260;2023-12-20T01:10:17;9.20;99.90
59309;DHT22;48433;53.016;-2.260;2023-12-20T01:12:45;9.10;99.90
59309;DHT22;48433;53.016;-2.260;2023-12-20T01:15:12;9.10;99.90
59309;DHT22;48433;53.016;-2.260;2023-12-20T01:17:39;9.20;99.90
59309;DHT22;48433;53.016;-2.260;2023-12-20T01:20:07;9.20;99.90
59309;DHT22;48433;53.016;-2.260;2023-12-20T01:22:35;9.20;99.90
59309;DHT22;48433;53.016;-2.260;2023-12-20T01:25:03;9.20;99.90
59309;DHT22;48433;53.016;-2.260;2023-12-20T01:27:30;9.20;99.90
59309;DHT22;48433;53.016;-2.260;2023-12-20T01:29:58;9.20;99.90
59309;DHT22;48433;53.016;-2.260;2023-12-20T01:32:25;9.20;99.90
59309;DHT22;48433;53.016;-2.260;2023-12-20T01:34:53;9.20;99.90
59309;DHT22;48433;53.016;-2.260;2023-12-20T01:37:22;9.20;99.90
59309;DHT22;48433;53.016;-2.260;2023-12-20T01:39:51;9.20;99.90
59309;DHT22;48433;53.016;-2.260;2023-12-20T01:42:18;9.20;99.90
59309;DHT22;48433;53.016;-2.260;2023-12-20T01:44:46;9.30;99.90
59309;DHT22;48433;53.016;-2.260;2023-12-20T01:47:13;9.30;99.90
59309;DHT22;48433;53.016;-2.260;2023-12-20T01:49:41;9.30;99.90
59309;DHT22;48433;53.016;-2.260;2023-12-20T01:52:08;9.30;99.90
59309;DHT22;48433;53.016;-2.260;2023-12-20T01:54:39;9.30;99.90
59309;DHT22;48433;53.016;-2.260;2023-12-20T01:57:07;9.30;99.90
59309;DHT22;48433;53.016;-2.260;2023-12-20T01:59:35;9.30;99.90
59309;DHT22;48433;53.016;-2.260;2023-12-20T02:02:03;9.30;99.90
59309;DHT22;48433;53.016;-2.260;2023-12-20T02:04:31;9.40;99.90
59309;DHT22;48433;53.016;-2.260;2023-12-20T02:06:58;9.40;99.90
59309;DHT22;48433;53.016;-2.260;2023-12-20T02:09:26;9.40;99.90
59309;DHT22;48433;53.016;-2.260;2023-12-20T02:11:54;9.40;99.90
59309;DHT22;48433;53.016;-2.260;2023-12-20T02:14:22;9.40;99.90
59309;DHT22;48433;53.016;-2.260;2023-12-20T02:16:50;9.40;99.90
59309;DHT22;48433;53.016;-2.260;2023-12-20T02:19:17;9.40;99.90
59309;DHT22;48433;53.016;-2.260;2023-12-20T02:21:45;9.50;99.90
59309;DHT22;48433;53.016;-2.260;2023-12-20T02:24:12;9.50;99.90
59309;DHT22;48433;53.016;-2.260;2023-12-20T02:26:40;9.50;99.90
59309;DHT22;48433;53.016;-2.260;2023-12-20T02:29:11;9.50;99.90
59309;DHT22;48433;53.016;-2.260;2023-12-20T02:31:39;9.60;99.90
59309;DHT22;48433;53.016;-2.260;2023-12-20T02:34:06;9.60;99.90
59309;DHT22;48433;53.016;-2.260;2023-12-20T02:36:34;9.60;99.90
59309;DHT22;48433;53.016;-2.260;2023-12-20T02:39:01;9.60;99.90
59309;DHT22;48433;53.016;-2.260;2023-12-20T02:41:29;9.60;99.90
59309;DHT22;48433;53.016;-2.260;2023-12-20T02:43:56;9.70;99.90
59309;DHT22;48433;53.016;-2.260;2023-12-20T02:46:24;9.60;99.90
59309;DHT22;48433;53.016;-2.260;2023-12-20T02:48:51;9.60;99.90
59309;DHT22;48433;53.016;-2.260;2023-12-20T02:51:19;9.70;99.90
59309;DHT22;48433;53.016;-2.260;2023-12-20T02:53:46;9.70;99.90
59309;DHT22;48433;53.016;-2.260;2023-12-20T02:56:14;9.60;99.90
59309;DHT22;48433;53.016;-2.260;2023-12-20T02:58:41;9.70;99.90
59309;DHT22;48433;53.016;-2.260;2023-12-20T03:01:08;9.70;99.90
59309;DHT22;48433;53.016;-2.260;2023-12-20T03:03:36;9.70;99.90
59309;DHT22;48433;53.016;-2.260;2023-12-20T03:08:31;9.70;99.90
59309;DHT22;48433;53.016;-2.260;2023-12-20T03:10:59;9.80;99.90
59309;DHT22;48433;53.016;-2.260;2023-12-20T03:13:26;9.80;99.90
59309;DHT22;48433;53.016;-2.260;2023-12-20T03:15:54;9.80;99.90
59309;DHT22;48433;53.016;-2.260;2023-12-20T03:18:22;9.80;99.90
59309;DHT22;48433;53.016;-2.260;2023-12-20T03:20:49;9.80;99.90
59309;DHT22;48433;53.016;-2.260;2023-12-20T03:23:18;9.70;99.90
59309;DHT22;48433;53.016;-2.260;2023-12-20T03:25:45;9.70;99.90
59309;DHT22;48433;53.016;-2.260;2023-12-20T03:28:14;9.70;99.90
59309;DHT22;48433;53.016;-2.260;2023-12-20T03:30:41;9.80;99.90
59309;DHT22;48433;53.016;-2.260;2023-12-20T03:33:09;9.80;99.90
59309;DHT22;48433;53.016;-2.260;2023-12-20T03:35:36;9.90;99.90
59309;DHT22;48433;53.016;-2.260;2023-12-20T03:38:04;9.90;99.90
59309;DHT22;48433;53.016;-2.260;2023-12-20T03:40:31;9.90;99.90
59309;DHT22;48433;53.016;-2.260;2023-12-20T03:42:59;9.90;99.90
59309;DHT22;48433;53.016;-2.260;2023-12-20T03:45:26;9.90;99.90
59309;DHT22;48433;53.016;-2.260;2023-12-20T03:47:54;9.90;99.90
59309;DHT22;48433;53.016;-2.260;2023-12-20T03:50:23;10.00;99.90
59309;DHT22;48433;53.016;-2.260;2023-12-20T03:52:50;9.90;99.90
59309;DHT22;48433;53.016;-2.260;2023-12-20T03:55:18;10.00;99.90
59309;DHT22;48433;53.016;-2.260;2023-12-20T03:57:46;10.00;99.90
59309;DHT22;48433;53.016;-2.260;2023-12-20T04:00:14;10.00;99.90
59309;DHT22;48433;53.016;-2.260;2023-12-20T04:02:42;10.00;99.90
59309;DHT22;48433;53.016;-2.260;2023-12-20T04:05:09;9.90;99.90
59309;DHT22;48433;53.016;-2.260;2023-12-20T04:07:37;10.10;99.90
59309;DHT22;48433;53.016;-2.260;2023-12-20T04:10:05;10.00;99.90
59309;DHT22;48433;53.016;-2.260;2023-12-20T04:12:32;10.10;99.90
59309;DHT22;48433;53.016;-2.260;2023-12-20T04:15:00;10.10;99.90
59309;DHT22;48433;53.016;-2.260;2023-12-20T04:19:55;10.10;99.90
59309;DHT22;48433;53.016;-2.260;2023-12-20T04:22:23;10.20;99.90
59309;DHT22;48433;53.016;-2.260;2023-12-20T04:24:50;10.20;99.90
59309;DHT22;48433;53.016;-2.260;2023-12-20T04:27:18;10.10;99.90
59309;DHT22;48433;53.016;-2.260;2023-12-20T04:29:46;10.10;99.90
59309;DHT22;48433;53.016;-2.260;2023-12-20T04:32:13;10.10;99.90
59309;DHT22;48433;53.016;-2.260;2023-12-20T04:34:40;10.20;99.90
59309;DHT22;48433;53.016;-2.260;2023-12-20T04:37:08;10.10;99.90
59309;DHT22;48433;53.016;-2.260;2023-12-20T04:39:36;10.10;99.90
59309;DHT22;48433;53.016;-2.260;2023-12-20T04:42:03;10.20;99.90
59309;DHT22;48433;53.016;-2.260;2023-12-20T04:44:31;10.20;99.90
59309;DHT22;48433;53.016;-2.260;2023-12-20T04:46:58;10.20;99.90
59309;DHT22;48433;53.016;-2.260;2023-12-20T04:49:26;10.20;99.90
59309;DHT22;48433;53.016;-2.260;2023-12-20T04:51:53;10.20;99.90
59309;DHT22;48433;53.016;-2.260;2023-12-20T04:54:21;10.20;99.90
59309;DHT22;48433;53.016;-2.260;2023-12-20T04:56:49;10.20;99.90
59309;DHT22;48433;53.016;-2.260;2023-12-20T04:59:16;10.30;99.90
59309;DHT22;48433;53.016;-2.260;2023-12-20T05:01:43;10.30;99.90
59309;DHT22;48433;53.016;-2.260;2023-12-20T05:04:11;10.30;99.90
59309;DHT22;48433;53.016;-2.260;2023-12-20T05:06:39;10.20;99.90
59309;DHT22;48433;53.016;-2.260;2023-12-20T05:09:06;10.30;99.90
59309;DHT22;48433;53.016;-2.260;2023-12-20T05:11:34;10.30;99.90
59309;DHT22;48433;53.016;-2.260;2023-12-20T05:14:01;10.30;99.90
59309;DHT22;48433;53.016;-2.260;2023-12-20T05:16:28;10.30;99.90
59309;DHT22;48433;53.016;-2.260;2023-12-20T05:18:56;10.20;99.90
59309;DHT22;48433;53.016;-2.260;2023-12-20T05:21:24;10.20;99.90
59309;DHT22;48433;53.016;-2.260;2023-12-20T05:23:51;10.20;99.90
59309;DHT22;48433;53.016;-2.260;2023-12-20T05:26:19;10.20;99.90
59309;DHT22;48433;53.016;-2.260;2023-12-20T05:28:46;10.20;99.90
59309;DHT22;48433;53.016;-2.260;2023-12-20T05:31:13;10.10;99.90
59309;DHT22;48433;53.016;-2.260;2023-12-20T05:33:41;10.20;99.90
59309;DHT22;48433;53.016;-2.260;2023-12-20T05:36:09;10.20;99.90
59309;DHT22;48433;53.016;-2.260;2023-12-20T05:38:38;10.20;99.90
59309;DHT22;48433;53.016;-2.260;2023-12-20T05:41:06;10.20;99.90
59309;DHT22;48433;53.016;-2.260;2023-12-20T05:43:33;10.20;99.90
59309;DHT22;48433;53.016;-2.260;2023-12-20T05:46:01;10.20;99.90
59309;DHT22;48433;53.016;-2.260;2023-12-20T05:48:28;10.20;99.90
59309;DHT22;48433;53.016;-2.260;2023-12-20T05:50:56;10.20;99.90
59309;DHT22;48433;53.016;-2.260;2023-12-20T05:53:24;10.20;99.90
59309;DHT22;48433;53.016;-2.260;2023-12-20T05:55:52;10.20;99.90
59309;DHT22;48433;53.016;-2.260;2023-12-20T05:58:20;10.20;99.90
59309;DHT22;48433;53.016;-2.260;2023-12-20T06:00:47;10.20;99.90
59309;DHT22;48433;53.016;-2.260;2023-12-20T06:03:16;10.20;99.90
59309;DHT22;48433;53.016;-2.260;2023-12-20T06:05:43;10.20;99.90
59309;DHT22;48433;53.016;-2.260;2023-12-20T06:08:11;10.30;99.90
59309;DHT22;48433;53.016;-2.260;2023-12-20T06:10:38;10.30;99.90
59309;DHT22;48433;53.016;-2.260;2023-12-20T06:15:34;10.30;99.90
59309;DHT22;48433;53.016;-2.260;2023-12-20T06:18:02;10.30;99.90
59309;DHT22;48433;53.016;-2.260;2023-12-20T06:20:30;10.30;99.90
59309;DHT22;48433;53.016;-2.260;2023-12-20T06:22:58;10.30;99.90
59309;DHT22;48433;53.016;-2.260;2023-12-20T06:25:25;10.30;99.90
59309;DHT22;48433;53.016;-2.260;2023-12-20T06:27:53;10.20;99.90
59309;DHT22;48433;53.016;-2.260;2023-12-20T06:30:20;10.20;99.90
59309;DHT22;48433;53.016;-2.260;2023-12-20T06:32:48;10.10;99.90
59309;DHT22;48433;53.016;-2.260;2023-12-20T06:35:15;10.10;99.90
59309;DHT22;48433;53.016;-2.260;2023-12-20T06:37:43;10.00;99.90
59309;DHT22;48433;53.016;-2.260;2023-12-20T06:40:11;10.00;99.90
59309;DHT22;48433;53.016;-2.260;2023-12-20T06:42:45;9.90;99.90
59309;DHT22;48433;53.016;-2.260;2023-12-20T06:45:28;9.90;99.90
59309;DHT22;48433;53.016;-2.260;2023-12-20T06:47:56;9.80;99.90
59309;DHT22;48433;53.016;-2.260;2023-12-20T06:50:24;9.80;99.90
59309;DHT22;48433;53.016;-2.260;2023-12-20T06:52:51;9.80;99.90
59309;DHT22;48433;53.016;-2.260;2023-12-20T06:55:19;9.80;99.90
59309;DHT22;48433;53.016;-2.260;2023-12-20T06:57:47;9.70;99.90
59309;DHT22;48433;53.016;-2.260;2023-12-20T07:00:15;9.80;99.90
59309;DHT22;48433;53.016;-2.260;2023-12-20T07:02:43;9.80;99.90
59309;DHT22;48433;53.016;-2.260;2023-12-20T07:07:42;9.90;99.90
59309;DHT22;48433;53.016;-2.260;2023-12-20T07:10:10;10.00;99.90
59309;DHT22;48433;53.016;-2.260;2023-12-20T07:12:38;10.00;99.90
59309;DHT22;48433;53.016;-2.260;2023-12-20T07:15:06;10.00;99.90
59309;DHT22;48433;53.016;-2.260;2023-12-20T07:17:47;10.10;99.90
59309;DHT22;48433;53.016;-2.260;2023-12-20T07:22:43;10.10;99.90
59309;DHT22;48433;53.016;-2.260;2023-12-20T07:25:11;10.20;99.90
59309;DHT22;48433;53.016;-2.260;2023-12-20T07:27:38;10.20;99.90
59309;DHT22;48433;53.016;-2.260;2023-12-20T07:30:09;10.20;99.90
59309;DHT22;48433;53.016;-2.260;2023-12-20T07:32:39;10.20;99.90
59309;DHT22;48433;53.016;-2.260;2023-12-20T07:35:12;10.20;99.90
59309;DHT22;48433;53.016;-2.260;2023-12-20T07:37:39;10.20;99.90
59309;DHT22;48433;53.016;-2.260;2023-12-20T07:40:07;10.20;99.90
59309;DHT22;48433;53.016;-2.260;2023-12-20T07:42:35;10.20;99.90
59309;DHT22;48433;53.016;-2.260;2023-12-20T07:45:03;10.10;99.90
59309;DHT22;48433;53.016;-2.260;2023-12-20T07:47:31;10.10;99.90
59309;DHT22;48433;53.016;-2.260;2023-12-20T07:49:58;10.10;99.90
59309;DHT22;48433;53.016;-2.260;2023-12-20T07:52:26;10.00;99.90
59309;DHT22;48433;53.016;-2.260;2023-12-20T07:54:54;10.00;99.90
59309;DHT22;48433;53.016;-2.260;2023-12-20T07:57:21;9.90;99.90
59309;DHT22;48433;53.016;-2.260;2023-12-20T07:59:49;9.90;99.90
59309;DHT22;48433;53.016;-2.260;2023-12-20T08:02:16;10.00;99.90
59309;DHT22;48433;53.016;-2.260;2023-12-20T08:04:44;9.90;99.90
59309;DHT22;48433;53.016;-2.260;2023-12-20T08:07:12;9.90;99.90
59309;DHT22;48433;53.016;-2.260;2023-12-20T08:09:52;9.90;99.90
59309;DHT22;48433;53.016;-2.260;2023-12-20T08:12:20;9.90;99.90
59309;DHT22;48433;53.016;-2.260;2023-12-20T08:14:47;10.00;99.90
59309;DHT22;48433;53.016;-2.260;2023-12-20T08:17:15;10.00;99.90
59309;DHT22;48433;53.016;-2.260;2023-12-20T08:19:43;10.10;99.90
59309;DHT22;48433;53.016;-2.260;2023-12-20T08:22:11;10.10;99.90
59309;DHT22;48433;53.016;-2.260;2023-12-20T08:24:38;10.20;99.90
59309;DHT22;48433;53.016;-2.260;2023-12-20T08:27:06;10.20;99.90
59309;DHT22;48433;53.016;-2.260;2023-12-20T08:29:34;10.20;99.90
59309;DHT22;48433;53.016;-2.260;2023-12-20T08:32:01;10.20;99.90
59309;DHT22;48433;53.016;-2.260;2023-12-20T08:34:29;10.30;99.90
59309;DHT22;48433;53.016;-2.260;2023-12-20T08:36:57;10.40;99.90
59309;DHT22;48433;53.016;-2.260;2023-12-20T08:39:25;10.40;99.90
59309;DHT22;48433;53.016;-2.260;2023-12-20T08:41:52;10.40;99.90
59309;DHT22;48433;53.016;-2.260;2023-12-20T08:44:20;10.40;99.90
59309;DHT22;48433;53.016;-2.260;2023-12-20T08:46:49;10.40;99.90
59309;DHT22;48433;53.016;-2.260;2023-12-20T08:49:17;10.40;99.90
59309;DHT22;48433;53.016;-2.260;2023-12-20T08:51:44;10.40;99.90
59309;DHT22;48433;53.016;-2.260;2023-12-20T08:54:12;10.40;99.90
59309;DHT22;48433;53.016;-2.260;2023-12-20T08:56:40;10.40;99.90
59309;DHT22;48433;53.016;-2.260;2023-12-20T08:59:07;10.40;99.90
59309;DHT22;48433;53.016;-2.260;2023-12-20T09:01:35;10.40;99.90
59309;DHT22;48433;53.016;-2.260;2023-12-20T09:04:02;10.40;99.90
59309;DHT22;48433;53.016;-2.260;2023-12-20T09:06:30;10.40;99.90
59309;DHT22;48433;53.016;-2.260;2023-12-20T09:08:58;10.40;99.90
59309;DHT22;48433;53.016;-2.260;2023-12-20T09:11:25;10.40;99.90
59309;DHT22;48433;53.016;-2.260;2023-12-20T09:13:53;10.40;99.90
59309;DHT22;48433;53.016;-2.260;2023-12-20T09:16:20;10.50;99.90
59309;DHT22;48433;53.016;-2.260;2023-12-20T09:18:48;10.50;99.90
59309;DHT22;48433;53.016;-2.260;2023-12-20T09:21:15;10.50;99.90
59309;DHT22;48433;53.016;-2.260;2023-12-20T09:23:43;10.50;99.90
59309;DHT22;48433;53.016;-2.260;2023-12-20T09:26:10;10.50;99.90
59309;DHT22;48433;53.016;-2.260;2023-12-20T09:28:37;10.50;99.90
59309;DHT22;48433;53.016;-2.260;2023-12-20T09:31:06;10.50;99.90
59309;DHT22;48433;53.016;-2.260;2023-12-20T09:33:34;10.50;99.90
59309;DHT22;48433;53.016;-2.260;2023-12-20T09:36:01;10.60;99.90
59309;DHT22;48433;53.016;-2.260;2023-12-20T09:38:29;10.60;99.90
59309;DHT22;48433;53.016;-2.260;2023-12-20T09:40:56;10.60;99.90
59309;DHT22;48433;53.016;-2.260;2023-12-20T09:43:24;10.60;99.90
59309;DHT22;48433;53.016;-2.260;2023-12-20T09:45:52;10.70;99.90
59309;DHT22;48433;53.016;-2.260;2023-12-20T09:48:20;10.70;99.90
59309;DHT22;48433;53.016;-2.260;2023-12-20T09:50:48;10.80;99.90
59309;DHT22;48433;53.016;-2.260;2023-12-20T09:53:20;10.70;99.90
59309;DHT22;48433;53.016;-2.260;2023-12-20T09:55:50;10.70;99.90
59309;DHT22;48433;53.016;-2.260;2023-12-20T09:58:18;10.70;99.90
59309;DHT22;48433;53.016;-2.260;2023-12-20T10:00:45;10.70;99.90
59309;DHT22;48433;53.016;-2.260;2023-12-20T10:03:14;10.70;99.90
59309;DHT22;48433;53.016;-2.260;2023-12-20T10:05:45;10.70;99.90
59309;DHT22;48433;53.016;-2.260;2023-12-20T10:08:14;10.70;99.90
59309;DHT22;48433;53.016;-2.260;2023-12-20T10:10:42;10.70;99.90
59309;DHT22;48433;53.016;-2.260;2023-12-20T10:13:14;10.60;99.90
59309;DHT22;48433;53.016;-2.260;2023-12-20T10:15:42;10.70;99.90
59309;DHT22;48433;53.016;-2.260;2023-12-20T10:18:11;10.70;99.90
59309;DHT22;48433;53.016;-2.260;2023-12-20T10:20:40;10.70;99.90
59309;DHT22;48433;53.016;-2.260;2023-12-20T10:23:07;10.70;99.90
59309;DHT22;48433;53.016;-2.260;2023-12-20T10:25:35;10.70;99.90
59309;DHT22;48433;53.016;-2.260;2023-12-20T10:28:12;10.80;99.90
59309;DHT22;48433;53.016;-2.260;2023-12-20T10:30:41;10.80;99.90
59309;DHT22;48433;53.016;-2.260;2023-12-20T10:33:10;10.80;99.90
59309;DHT22;48433;53.016;-2.260;2023-12-20T10:35:38;10.80;99.90
59309;DHT22;48433;53.016;-2.260;2023-12-20T10:38:11;10.80;99.90
59309;DHT22;48433;53.016;-2.260;2023-12-20T10:40:39;10.80;99.90
59309;DHT22;48433;53.016;-2.260;2023-12-20T10:43:06;10.90;99.90
59309;DHT22;48433;53.016;-2.260;2023-12-20T10:45:35;10.90;99.90
59309;DHT22;48433;53.016;-2.260;2023-12-20T10:48:03;10.90;99.90
59309;DHT22;48433;53.016;-2.260;2023-12-20T10:50:31;10.90;99.90
59309;DHT22;48433;53.016;-2.260;2023-12-20T10:52:59;10.90;99.90
59309;DHT22;48433;53.016;-2.260;2023-12-20T10:55:27;10.90;99.90
59309;DHT22;48433;53.016;-2.260;2023-12-20T10:58:06;10.90;99.90
59309;DHT22;48433;53.016;-2.260;2023-12-20T11:00:39;10.90;99.90
59309;DHT22;48433;53.016;-2.260;2023-12-20T11:03:09;10.90;99.90
59309;DHT22;48433;53.016;-2.260;2023-12-20T11:05:46;10.90;99.90
59309;DHT22;48433;53.016;-2.260;2023-12-20T11:08:28;11.00;99.90
59309;DHT22;48433;53.016;-2.260;2023-12-20T11:11:00;11.00;99.90
59309;DHT22;48433;53.016;-2.260;2023-12-20T11:13:34;11.00;99.90
59309;DHT22;48433;53.016;-2.260;2023-12-20T11:16:03;11.00;99.90
59309;DHT22;48433;53.016;-2.260;2023-12-20T11:18:31;11.10;99.90
59309;DHT22;48433;53.016;-2.260;2023-12-20T11:21:02;11.10;99.90
59309;DHT22;48433;53.016;-2.260;2023-12-20T11:23:34;11.20;99.90
59309;DHT22;48433;53.016;-2.260;2023-12-20T11:26:03;11.20;99.90
59309;DHT22;48433;53.016;-2.260;2023-12-20T11:28:30;11.30;99.90
59309;DHT22;48433;53.016;-2.260;2023-12-20T11:30:58;11.30;99.90
59309;DHT22;48433;53.016;-2.260;2023-12-20T11:33:45;13.40;99.90
59309;DHT22;48433;53.016;-2.260;2023-12-20T11:36:18;11.30;99.90
59309;DHT22;48433;53.016;-2.260;2023-12-20T11:38:58;11.40;99.90
59309;DHT22;48433;53.016;-2.260;2023-12-20T11:41:27;11.40;99.90
59309;DHT22;48433;53.016;-2.260;2023-12-20T11:43:54;11.40;99.90
59309;DHT22;48433;53.016;-2.260;2023-12-20T11:46:22;11.50;99.90
59309;DHT22;48433;53.016;-2.260;2023-12-20T11:48:50;11.50;99.90
59309;DHT22;48433;53.016;-2.260;2023-12-20T11:51:17;11.50;99.90
59309;DHT22;48433;53.016;-2.260;2023-12-20T11:53:45;11.50;99.90
59309;DHT22;48433;53.016;-2.260;2023-12-20T11:56:18;11.50;99.90
59309;DHT22;48433;53.016;-2.260;2023-12-20T11:58:46;11.50;99.90
59309;DHT22;48433;53.016;-2.260;2023-12-20T12:01:16;11.50;99.90
59309;DHT22;48433;53.016;-2.260;2023-12-20T12:03:44;11.50;99.90
59309;DHT22;48433;53.016;-2.260;2023-12-20T12:06:11;11.50;99.90
59309;DHT22;48433;53.016;-2.260;2023-12-20T12:08:40;11.50;99.90
59309;DHT22;48433;53.016;-2.260;2023-12-20T12:11:07;11.60;99.90
59309;DHT22;48433;53.016;-2.260;2023-12-20T12:13:35;11.60;99.90
59309;DHT22;48433;53.016;-2.260;2023-12-20T12:16:02;11.70;99.90
59309;DHT22;48433;53.016;-2.260;2023-12-20T12:18:30;11.70;99.90
59309;DHT22;48433;53.016;-2.260;2023-12-20T12:21:01;11.70;99.90
59309;DHT22;48433;53.016;-2.260;2023-12-20T12:23:36;11.70;99.90
59309;DHT22;48433;53.016;-2.260;2023-12-20T12:26:03;11.70;99.90
59309;DHT22;48433;53.016;-2.260;2023-12-20T12:28:31;11.70;99.90
59309;DHT22;48433;53.016;-2.260;2023-12-20T12:30:59;11.70;99.90
59309;DHT22;48433;53.016;-2.260;2023-12-20T12:33:27;11.70;99.90
59309;DHT22;48433;53.016;-2.260;2023-12-20T12:35:55;11.70;99.90
59309;DHT22;48433;53.016;-2.260;2023-12-20T12:38:23;11.60;99.90
59309;DHT22;48433;53.016;-2.260;2023-12-20T12:40:51;11.60;99.90
59309;DHT22;48433;53.016;-2.260;2023-12-20T12:43:21;11.50;99.90
59309;DHT22;48433;53.016;-2.260;2023-12-20T12:45:50;11.50;99.90
59309;DHT22;48433;53.016;-2.260;2023-12-20T12:48:18;11.50;99.90
59309;DHT22;48433;53.016;-2.260;2023-12-20T12:50:46;11.50;99.90
59309;DHT22;48433;53.016;-2.260;2023-12-20T12:53:14;11.40;99.90
59309;DHT22;48433;53.016;-2.260;2023-12-20T12:55:41;11.40;99.90
59309;DHT22;48433;53.016;-2.260;2023-12-20T12:58:09;11.30;99.90
59309;DHT22;48433;53.016;-2.260;2023-12-20T13:00:37;11.40;99.90
59309;DHT22;48433;53.016;-2.260;2023-12-20T13:03:04;11.40;99.90
59309;DHT22;48433;53.016;-2.260;2023-12-20T13:05:32;11.40;99.90
59309;DHT22;48433;53.016;-2.260;2023-12-20T13:08:05;11.40;99.90
59309;DHT22;48433;53.016;-2.260;2023-12-20T13:10:34;11.50;99.90
59309;DHT22;48433;53.016;-2.260;2023-12-20T13:13:02;11.50;99.90
59309;DHT22;48433;53.016;-2.260;2023-12-20T13:15:31;11.50;99.90
59309;DHT22;48433;53.016;-2.260;2023-12-20T13:17:59;11.50;99.90
59309;DHT22;48433;53.016;-2.260;2023-12-20T13:20:27;11.60;99.90
59309;DHT22;48433;53.016;-2.260;2023-12-20T13:22:54;11.60;99.90
59309;DHT22;48433;53.016;-2.260;2023-12-20T13:25:22;11.60;99.90
59309;DHT22;48433;53.016;-2.260;2023-12-20T13:27:49;11.70;99.90
59309;DHT22;48433;53.016;-2.260;2023-12-20T13:30:17;11.70;99.90
59309;DHT22;48433;53.016;-2.260;2023-12-20T13:32:46;11.70;99.90
59309;DHT22;48433;53.016;-2.260;2023-12-20T13:35:13;11.80;99.90
59309;DHT22;48433;53.016;-2.260;2023-12-20T13:37:41;11.90;99.90
59309;DHT22;48433;53.016;-2.260;2023-12-20T13:40:09;11.90;99.90
59309;DHT22;48433;53.016;-2.260;2023-12-20T13:42:36;11.90;99.90
59309;DHT22;48433;53.016;-2.260;2023-12-20T13:45:04;11.90;99.90
59309;DHT22;48433;53.016;-2.260;2023-12-20T13:47:32;11.90;99.90
59309;DHT22;48433;53.016;-2.260;2023-12-20T13:49:59;11.90;99.90
59309;DHT22;48433;53.016;-2.260;2023-12-20T13:52:27;11.90;99.90
59309;DHT22;48433;53.016;-2.260;2023-12-20T13:54:55;11.90;99.90
59309;DHT22;48433;53.016;-2.260;2023-12-20T13:57:22;11.90;99.90
59309;DHT22;48433;53.016;-2.260;2023-12-20T14:00:10;11.90;99.90
59309;DHT22;48433;53.016;-2.260;2023-12-20T14:02:42;11.90;99.90
59309;DHT22;48433;53.016;-2.260;2023-12-20T14:05:09;12.00;99.90
59309;DHT22;48433;53.016;-2.260;2023-12-20T14:07:37;11.90;99.90
59309;DHT22;48433;53.016;-2.260;2023-12-20T14:10:05;11.90;99.90
59309;DHT22;48433;53.016;-2.260;2023-12-20T14:12:33;11.90;99.90
59309;DHT22;48433;53.016;-2.260;2023-12-20T14:15:03;11.90;99.90
59309;DHT22;48433;53.016;-2.260;2023-12-20T14:17:31;11.90;99.90
59309;DHT22;48433;53.016;-2.260;2023-12-20T14:19:59;12.00;99.90
59309;DHT22;48433;53.016;-2.260;2023-12-20T14:22:26;12.00;99.90
59309;DHT22;48433;53.016;-2.260;2023-12-20T14:24:56;12.00;99.90
59309;DHT22;48433;53.016;-2.260;2023-12-20T14:27:24;12.00;99.90
59309;DHT22;48433;53.016;-2.260;2023-12-20T14:29:54;12.00;99.90
59309;DHT22;48433;53.016;-2.260;2023-12-20T14:32:22;12.00;99.90
59309;DHT22;48433;53.016;-2.260;2023-12-20T14:34:49;12.00;99.90
59309;DHT22;48433;53.016;-2.260;2023-12-20T14:37:17;12.00;99.90
59309;DHT22;48433;53.016;-2.260;2023-12-20T14:39:44;12.00;99.90
59309;DHT22;48433;53.016;-2.260;2023-12-20T14:42:12;12.00;99.90
59309;DHT22;48433;53.016;-2.260;2023-12-20T14:44:41;12.00;99.90
59309;DHT22;48433;53.016;-2.260;2023-12-20T14:47:08;12.00;99.90
59309;DHT22;48433;53.016;-2.260;2023-12-20T14:49:36;12.00;99.90
59309;DHT22;48433;53.016;-2.260;2023-12-20T14:52:05;12.00;99.90
59309;DHT22;48433;53.016;-2.260;2023-12-20T14:54:32;12.00;99.90
59309;DHT22;48433;53.016;-2.260;2023-12-20T14:57:00;12.00;99.90
59309;DHT22;48433;53.016;-2.260;2023-12-20T14:59:32;12.00;99.90
59309;DHT22;48433;53.016;-2.260;2023-12-20T15:02:00;12.00;99.90
59309;DHT22;48433;53.016;-2.260;2023-12-20T15:04:30;12.00;99.90
59309;DHT22;48433;53.016;-2.260;2023-12-20T15:06:58;12.00;99.90
59309;DHT22;48433;53.016;-2.260;2023-12-20T15:09:26;12.00;99.90
59309;DHT22;48433;53.016;-2.260;2023-12-20T15:11:53;12.10;99.90
59309;DHT22;48433;53.016;-2.260;2023-12-20T15:14:21;12.00;99.90
59309;DHT22;48433;53.016;-2.260;2023-12-20T15:16:49;12.00;99.90
59309;DHT22;48433;53.016;-2.260;2023-12-20T15:19:16;12.00;99.90
59309;DHT22;48433;53.016;-2.260;2023-12-20T15:21:44;12.10;99.90
59309;DHT22;48433;53.016;-2.260;2023-12-20T15:24:14;12.00;99.90
59309;DHT22;48433;53.016;-2.260;2023-12-20T15:26:47;12.00;99.90
59309;DHT22;48433;53.016;-2.260;2023-12-20T15:29:14;12.00;99.90
59309;DHT22;48433;53.016;-2.260;2023-12-20T15:31:42;12.00;99.90
59309;DHT22;48433;53.016;-2.260;2023-12-20T15:34:10;12.00;99.90
59309;DHT22;48433;53.016;-2.260;2023-12-20T15:36:38;12.00;99.90
59309;DHT22;48433;53.016;-2.260;2023-12-20T15:39:06;12.10;99.90